Time,TemperatureF,DewpointF,PressureIn,WindDirection,WindDirectionDegrees,WindSpeedMPH,WindSpeedGustMPH,Humidity,HourlyPrecipIn,Conditions,Clouds,dailyrainin,SoftwareType,DateUTC
2013-06-24 00:01:00,70.2,67.8,30.02,SE,135,0.0,-999.0,92,-99.99,,,0.00,Acu-Link.com,2013-06-24 04:01:00,
2013-06-24 00:17:00,70.2,67.8,30.02,SSE,157,0.0,-999.0,92,-99.99,,,0.00,Acu-Link.com,2013-06-24 04:17:00,
2013-06-24 00:51:00,70.5,68.1,30.02,SSE,157,0.0,-999.0,92,-99.99,,,0.00,Acu-Link.com,2013-06-24 04:51:00,
2013-06-24 01:36:00,70.3,67.9,30.01,ESE,112,0.0,-999.0,92,-99.99,,,0.00,Acu-Link.com,2013-06-24 05:36:00,
2013-06-24 07:37:00,69.6,67.2,30.04,SSW,202,1.1,-999.0,92,-99.99,,,0.00,Acu-Link.com,2013-06-24 11:37:00,
2013-06-24 07:52:00,69.6,67.2,30.05,SSW,202,3.2,-999.0,92,-99.99,,,0.00,Acu-Link.com,2013-06-24 11:52:00,
2013-06-24 08:08:00,70.7,67.9,30.05,WSW,247,1.7,-999.0,91,-99.99,,,0.00,Acu-Link.com,2013-06-24 12:08:00,
2013-06-24 08:38:00,73.9,68.0,30.05,SSW,202,3.2,-999.0,82,-99.99,,,0.00,Acu-Link.com,2013-06-24 12:38:00,
2013-06-24 08:54:00,73.9,67.0,30.07,SSW,202,5.3,-999.0,79,-99.99,,,0.00,Acu-Link.com,2013-06-24 12:54:00,
2013-06-24 09:09:00,73.8,67.2,30.07,South,180,2.7,-999.0,80,-99.99,,,0.00,Acu-Link.com,2013-06-24 13:09:00,
2013-06-24 09:24:00,74.8,67.5,30.08,West,270,4.7,-999.0,78,-99.99,,,0.00,Acu-Link.com,2013-06-24 13:24:00,
2013-06-24 09:43:00,76.3,67.0,30.09,SSE,157,5.3,-999.0,73,-99.99,,,0.00,Acu-Link.com,2013-06-24 13:43:00,
2013-06-24 10:30:00,77.5,66.5,30.04,South,180,3.7,-999.0,69,-99.99,,,0.00,Acu-Link.com,2013-06-24 14:30:00,
2013-06-24 10:45:00,81.0,68.5,30.05,SW,225,6.3,-999.0,66,-99.99,,,0.00,Acu-Link.com,2013-06-24 14:45:00,
2013-06-24 11:00:00,82.9,68.5,30.04,WSW,247,4.2,-999.0,62,-99.99,,,0.00,Acu-Link.com,2013-06-24 15:00:00,
2013-06-24 11:15:00,82.6,69.2,30.04,SE,135,3.2,-999.0,64,-99.99,,,0.00,Acu-Link.com,2013-06-24 15:15:00,
2013-06-24 11:31:00,85.3,69.3,30.05,SW,225,5.3,-999.0,59,-99.99,,,0.00,Acu-Link.com,2013-06-24 15:31:00,
2013-06-24 12:31:00,83.5,68.6,30.06,South,180,7.3,-999.0,61,-99.99,,,0.00,Acu-Link.com,2013-06-24 16:31:00,
2013-06-24 12:46:00,84.0,69.6,30.06,NW,315,2.7,-999.0,62,-99.99,,,0.00,Acu-Link.com,2013-06-24 16:46:00,
2013-06-24 13:02:00,85.8,69.3,30.05,SSE,157,2.7,-999.0,58,-99.99,,,0.00,Acu-Link.com,2013-06-24 17:02:00,
2013-06-24 13:33:00,84.2,67.8,30.04,SE,135,5.3,-999.0,58,-99.99,,,0.00,Acu-Link.com,2013-06-24 17:33:00,
2013-06-24 13:48:00,87.4,70.3,30.02,WNW,292,2.7,-999.0,57,-99.99,,,0.00,Acu-Link.com,2013-06-24 17:48:00,
2013-06-24 14:03:00,86.9,67.7,30.03,SSE,157,5.8,-999.0,53,-99.99,,,0.00,Acu-Link.com,2013-06-24 18:03:00,
2013-06-24 14:18:00,88.5,71.3,30.01,ESE,112,2.7,-999.0,57,-99.99,,,0.00,Acu-Link.com,2013-06-24 18:18:00,
2013-06-24 14:49:00,88.0,70.3,29.98,SW,225,3.2,-999.0,56,-99.99,,,0.00,Acu-Link.com,2013-06-24 18:49:00,
2013-06-24 15:04:00,87.8,70.6,29.98,SSE,157,5.8,-999.0,57,-99.99,,,0.00,Acu-Link.com,2013-06-24 19:04:00,
2013-06-24 15:56:00,86.9,68.2,29.95,SW,225,7.8,-999.0,54,-99.99,,,0.00,Acu-Link.com,2013-06-24 19:56:00,
2013-06-24 16:12:00,87.4,70.8,29.95,West,270,2.2,-999.0,58,-99.99,,,0.00,Acu-Link.com,2013-06-24 20:12:00,
2013-06-24 16:27:00,90.1,69.5,29.96,SSE,157,6.3,-999.0,51,-99.99,,,0.00,Acu-Link.com,2013-06-24 20:27:00,
2013-06-24 16:42:00,89.6,71.8,29.95,WSW,247,5.3,-999.0,56,-99.99,,,0.00,Acu-Link.com,2013-06-24 20:42:00,
2013-06-24 17:15:00,88.9,71.7,29.94,SW,225,7.8,-999.0,57,-99.99,,,0.00,Acu-Link.com,2013-06-24 21:15:00,
2013-06-24 17:31:00,89.8,72.0,29.95,SW,225,4.2,-999.0,56,-99.99,,,0.00,Acu-Link.com,2013-06-24 21:31:00,
2013-06-24 17:46:00,88.7,73.0,29.95,South,180,4.2,-999.0,60,-99.99,,,0.00,Acu-Link.com,2013-06-24 21:46:00,
2013-06-24 18:03:00,86.2,71.6,29.95,South,180,6.3,-999.0,62,-99.99,,,0.00,Acu-Link.com,2013-06-24 22:03:00,
2013-06-24 18:18:00,83.5,71.4,29.95,SW,225,5.8,-999.0,67,-99.99,,,0.00,Acu-Link.com,2013-06-24 22:18:00,
2013-06-24 18:33:00,84.2,72.9,29.94,South,180,3.7,-999.0,69,-99.99,,,0.00,Acu-Link.com,2013-06-24 22:33:00,
2013-06-24 18:48:00,82.0,72.1,29.96,SSE,157,4.2,-999.0,72,-99.99,,,0.00,Acu-Link.com,2013-06-24 22:48:00,
2013-06-24 19:05:00,81.3,71.4,29.97,WNW,292,5.3,-999.0,72,-99.99,,,0.00,Acu-Link.com,2013-06-24 23:05:00,
2013-06-24 19:21:00,80.4,70.5,29.98,ESE,112,4.7,-999.0,72,-99.99,,,0.00,Acu-Link.com,2013-06-24 23:21:00,
2013-06-24 19:36:00,79.9,70.0,29.98,West,270,2.7,-999.0,72,-99.99,,,0.00,Acu-Link.com,2013-06-24 23:36:00,
2013-06-24 19:51:00,79.2,69.8,29.98,West,270,3.7,-999.0,73,-99.99,,,0.00,Acu-Link.com,2013-06-24 23:51:00,
2013-06-24 20:07:00,78.6,69.6,29.98,South,180,2.7,-999.0,74,-99.99,,,0.00,Acu-Link.com,2013-06-25 00:07:00,
2013-06-24 20:22:00,78.1,69.5,29.98,South,180,3.2,-999.0,75,-99.99,,,0.00,Acu-Link.com,2013-06-25 00:22:00,
2013-06-24 20:38:00,77.9,69.3,29.97,South,180,3.7,-999.0,75,-99.99,,,0.00,Acu-Link.com,2013-06-25 00:38:00,
2013-06-24 21:09:00,76.3,68.9,29.97,South,180,3.2,-999.0,78,-99.99,,,0.00,Acu-Link.com,2013-06-25 01:09:00,
2013-06-24 21:24:00,75.7,69.1,29.98,SSW,202,2.2,-999.0,80,-99.99,,,0.00,Acu-Link.com,2013-06-25 01:24:00,
2013-06-24 21:54:00,74.7,69.2,29.98,South,180,2.2,-999.0,83,-99.99,,,0.00,Acu-Link.com,2013-06-25 01:54:00,
2013-06-24 22:09:00,74.1,69.3,29.97,SSW,202,0.0,-999.0,85,-99.99,,,0.00,Acu-Link.com,2013-06-25 02:09:00,
2013-06-24 22:25:00,73.8,69.3,29.99,South,180,1.7,-999.0,86,-99.99,,,0.00,Acu-Link.com,2013-06-25 02:25:00,
2013-06-24 22:40:00,73.2,69.1,29.96,SSE,157,2.2,-999.0,87,-99.99,,,0.00,Acu-Link.com,2013-06-25 02:40:00,